Terminal Aerodrome Forecast
Issued by NWS

Current Version | Previous Version | Text Only | Print | Product List | Glossary On
Versions: 1 2 3 4 5 6 7 8 9 10 11 12 13 14 15 16 17 18 19
000
FTUS43 KJKL 040521
TAFSJS
TAF
KSJS 040521Z 0406/0506 VRB03KT P6SM OVC080
     FM041400 23004KT P6SM FEW080 SCT150
     FM042000 25008KT 6SM -SHRA BR SCT025 OVC060
     FM050100 27005KT P6SM VCSH OVC020
     FM050200 27005KT P6SM VCSH OVC008=

USA.gov is the U.S. government's official web portal to all federal, state and local government web resources and services.